createdAt,value
2019-03-19T00:02:21.036Z,13.30
2019-03-19T00:04:47.676Z,13.30
2019-03-19T00:07:14.289Z,13.33
2019-03-19T00:09:41.042Z,14.63
2019-03-19T00:12:07.586Z,14.03
2019-03-19T00:14:34.266Z,15.30
2019-03-19T00:17:00.997Z,13.63
2019-03-19T00:19:27.675Z,13.50
2019-03-19T00:21:54.366Z,14.73
2019-03-19T00:24:21.118Z,13.07
2019-03-19T00:26:47.722Z,13.37
2019-03-19T00:29:14.284Z,12.47
2019-03-19T00:31:40.942Z,14.97
2019-03-19T00:34:07.958Z,12.67
2019-03-19T00:36:34.494Z,12.83
2019-03-19T00:39:01.118Z,12.77
2019-03-19T00:41:27.821Z,14.27
2019-03-19T00:43:54.468Z,14.10
2019-03-19T00:46:21.194Z,13.40
2019-03-19T00:48:48.154Z,12.23
2019-03-19T00:51:14.772Z,14.47
2019-03-19T00:53:41.388Z,14.10
2019-03-19T00:56:08.030Z,12.33
2019-03-19T00:58:34.761Z,12.37
2019-03-19T01:01:01.534Z,12.60
2019-03-19T01:03:28.133Z,12.40
2019-03-19T01:05:54.850Z,12.87
2019-03-19T01:08:21.826Z,13.33
2019-03-19T01:10:48.510Z,11.43
2019-03-19T01:13:15.176Z,13.13
2019-03-19T01:15:41.796Z,13.27
2019-03-19T01:18:08.570Z,12.77
2019-03-19T01:20:35.180Z,12.57
2019-03-19T01:23:02.048Z,11.47
2019-03-19T01:25:29.817Z,12.70
2019-03-19T01:27:56.722Z,13.17
2019-03-19T01:30:23.426Z,14.63
2019-03-19T01:32:49.934Z,15.00
2019-03-19T01:35:17.328Z,14.03
2019-03-19T01:37:44.008Z,13.40
2019-03-19T01:40:11.563Z,12.83
2019-03-19T01:42:39.317Z,14.70
2019-03-19T01:45:08.474Z,14.43
2019-03-19T01:47:35.088Z,13.60
2019-03-19T01:50:02.008Z,14.07
2019-03-19T01:52:28.708Z,16.33
2019-03-19T01:54:55.610Z,13.87
2019-03-19T01:57:22.218Z,14.03
2019-03-19T01:59:48.912Z,15.53
2019-03-19T02:02:15.537Z,13.27
2019-03-19T02:04:42.154Z,14.83
2019-03-19T02:07:08.794Z,14.47
2019-03-19T02:09:35.844Z,13.70
2019-03-19T02:12:03.056Z,12.77
2019-03-19T02:14:29.674Z,12.87
2019-03-19T02:16:56.372Z,13.07
2019-03-19T02:19:23.061Z,12.97
2019-03-19T02:21:49.888Z,11.43
2019-03-19T02:24:16.502Z,11.27
2019-03-19T02:26:43.136Z,11.77
2019-03-19T02:29:10.839Z,12.33
2019-03-19T02:31:37.638Z,13.17
2019-03-19T02:34:04.675Z,12.13
2019-03-19T02:36:31.522Z,11.77
2019-03-19T02:38:59.152Z,11.07
2019-03-19T02:41:25.980Z,11.97
2019-03-19T02:43:52.611Z,14.13
2019-03-19T02:46:19.231Z,13.27
2019-03-19T02:48:45.924Z,11.47
2019-03-19T02:51:12.609Z,13.60
2019-03-19T02:53:39.340Z,13.30
2019-03-19T02:56:05.971Z,13.43
2019-03-19T02:58:32.609Z,12.97
2019-03-19T03:00:59.700Z,12.03
2019-03-19T03:03:26.275Z,12.97
2019-03-19T03:05:53.075Z,12.17
2019-03-19T03:08:19.784Z,14.40
2019-03-19T03:10:46.396Z,13.97
2019-03-19T03:13:13.478Z,14.47
2019-03-19T03:15:40.118Z,13.70
2019-03-19T03:18:06.739Z,14.50
2019-03-19T03:20:33.483Z,13.80
2019-03-19T03:23:00.232Z,12.43
2019-03-19T03:25:26.985Z,13.80
2019-03-19T03:27:53.652Z,12.93
2019-03-19T03:30:23.335Z,15.47
2019-03-19T03:32:50.235Z,14.77
2019-03-19T03:35:17.218Z,14.87
2019-03-19T03:37:44.166Z,14.50
2019-03-19T03:40:13.532Z,14.47
2019-03-19T03:42:42.819Z,13.80
2019-03-19T03:45:13.176Z,15.20
2019-03-19T03:47:39.908Z,14.23
2019-03-19T03:50:09.229Z,14.87
2019-03-19T03:52:35.845Z,14.13
2019-03-19T03:55:04.756Z,15.50
2019-03-19T03:57:31.569Z,15.10
2019-03-19T03:59:58.286Z,14.97
2019-03-19T04:02:25.048Z,14.50
2019-03-19T04:04:51.668Z,13.97
2019-03-19T04:07:18.516Z,15.13
2019-03-19T04:09:45.061Z,16.80
2019-03-19T04:12:11.895Z,15.40
2019-03-19T04:14:38.514Z,15.90
2019-03-19T04:17:06.430Z,14.00
2019-03-19T04:19:33.039Z,14.23
2019-03-19T04:21:59.666Z,14.37
2019-03-19T04:24:26.273Z,16.97
2019-03-19T04:26:52.983Z,15.77
2019-03-19T04:29:19.692Z,16.47
2019-03-19T04:31:46.440Z,15.83
2019-03-19T04:34:13.201Z,14.70
2019-03-19T04:36:39.813Z,14.73
2019-03-19T04:39:06.541Z,13.57
2019-03-19T04:41:33.055Z,14.83
2019-03-19T04:43:59.767Z,14.20
2019-03-19T04:46:26.465Z,13.07
2019-03-19T04:48:53.139Z,14.17
2019-03-19T04:51:19.755Z,12.70
2019-03-19T04:53:47.613Z,11.70
2019-03-19T04:56:14.271Z,13.40
2019-03-19T04:58:40.879Z,12.50
2019-03-19T05:01:07.519Z,10.97
2019-03-19T05:03:34.173Z,12.03
2019-03-19T05:06:01.015Z,12.47
2019-03-19T05:08:27.626Z,12.00
2019-03-19T05:10:54.275Z,13.13
2019-03-19T05:13:21.014Z,12.43
2019-03-19T05:15:49.383Z,13.37
2019-03-19T05:18:16.261Z,13.07
2019-03-19T05:20:42.931Z,13.73
2019-03-19T05:23:09.587Z,12.13
2019-03-19T05:25:36.209Z,12.43
2019-03-19T05:28:03.468Z,12.97
2019-03-19T05:30:30.093Z,13.37
2019-03-19T05:32:56.801Z,14.40
2019-03-19T05:35:23.419Z,14.47
2019-03-19T05:37:50.090Z,16.00
2019-03-19T05:40:16.880Z,14.30
2019-03-19T05:42:43.503Z,12.90
2019-03-19T05:45:13.721Z,13.57
2019-03-19T05:47:40.858Z,14.17
2019-03-19T05:50:15.713Z,13.67
2019-03-19T05:52:42.583Z,14.03
2019-03-19T05:55:10.120Z,13.33
2019-03-19T05:57:48.844Z,15.47
2019-03-19T06:00:16.224Z,16.00
2019-03-19T06:02:42.851Z,16.57
2019-03-19T06:05:13.807Z,16.40
2019-03-19T06:07:40.488Z,15.30
2019-03-19T06:10:11.633Z,17.23
2019-03-19T06:12:38.577Z,16.27
2019-03-19T06:15:08.271Z,14.00
2019-03-19T06:17:35.007Z,16.20
2019-03-19T06:20:03.052Z,15.20
2019-03-19T06:22:29.695Z,15.97
2019-03-19T06:24:56.446Z,16.57
2019-03-19T06:27:23.061Z,16.17
2019-03-19T06:29:49.681Z,16.97
2019-03-19T06:32:16.414Z,28.00
2019-03-19T06:34:43.264Z,28.33
2019-03-19T06:37:09.979Z,18.50
2019-03-19T06:39:36.637Z,15.67
2019-03-19T06:42:03.379Z,16.73
2019-03-19T06:44:30.148Z,20.97
2019-03-19T06:46:56.987Z,16.17
2019-03-19T06:49:23.571Z,15.83
2019-03-19T06:51:50.323Z,15.57
2019-03-19T06:54:17.079Z,15.97
2019-03-19T06:56:43.882Z,14.40
2019-03-19T06:59:10.541Z,13.97
2019-03-19T07:01:37.205Z,15.77
2019-03-19T07:04:03.940Z,15.00
2019-03-19T07:06:33.173Z,15.13
2019-03-19T07:09:05.859Z,15.87
2019-03-19T07:11:34.568Z,15.87
2019-03-19T07:14:01.484Z,15.57
2019-03-19T07:16:28.149Z,15.70
2019-03-19T07:18:54.775Z,14.40
2019-03-19T07:21:21.390Z,15.10
2019-03-19T07:23:48.329Z,14.87
2019-03-19T07:26:15.158Z,15.00
2019-03-19T07:28:42.149Z,14.87
2019-03-19T07:31:08.965Z,15.00
2019-03-19T10:38:42.250Z,7.63
2019-03-19T10:41:08.932Z,9.10
2019-03-19T10:43:35.718Z,8.77
2019-03-19T10:46:02.426Z,8.70
2019-03-19T10:48:29.000Z,7.70
2019-03-19T10:50:55.706Z,7.60
2019-03-19T10:53:22.388Z,7.70
2019-03-19T10:55:50.100Z,7.27
2019-03-19T10:58:17.760Z,7.37
2019-03-19T11:00:44.486Z,6.53
2019-03-19T11:03:11.193Z,7.73
2019-03-19T11:05:37.924Z,5.37
2019-03-19T11:08:04.734Z,4.37
2019-03-19T11:10:31.509Z,4.63
2019-03-19T11:12:58.344Z,4.80
2019-03-19T11:15:25.890Z,8.93
2019-03-19T11:17:52.784Z,10.17
2019-03-19T11:20:20.014Z,9.60
2019-03-19T11:22:47.344Z,7.53
2019-03-19T11:25:18.300Z,6.23
2019-03-19T11:27:46.265Z,5.10
2019-03-19T11:30:18.127Z,5.70
2019-03-19T11:32:46.017Z,4.67
2019-03-19T11:35:13.214Z,7.60
2019-03-19T11:37:40.024Z,6.53
2019-03-19T11:40:10.568Z,5.03
2019-03-19T11:42:37.204Z,7.17
2019-03-19T11:45:06.487Z,7.50
2019-03-19T11:47:33.446Z,10.03
2019-03-19T11:50:00.358Z,6.83
2019-03-19T11:52:27.100Z,5.67
2019-03-19T11:54:53.888Z,7.00
2019-03-19T11:57:20.795Z,7.43
2019-03-19T11:59:47.333Z,8.03
2019-03-19T12:02:13.980Z,7.47
2019-03-19T12:04:40.650Z,7.33
2019-03-19T12:07:07.302Z,7.40
2019-03-19T12:09:34.043Z,7.77
2019-03-19T12:12:00.686Z,7.70
2019-03-19T12:14:27.620Z,5.50
2019-03-19T12:16:54.836Z,10.83
2019-03-19T12:19:21.474Z,5.97
2019-03-19T12:21:48.190Z,6.97
2019-03-19T12:24:15.075Z,5.90
2019-03-19T12:26:41.933Z,7.37
2019-03-19T12:29:08.695Z,7.07
2019-03-19T12:31:35.314Z,6.87
2019-03-19T12:34:02.054Z,4.87
2019-03-19T12:36:29.102Z,6.17
2019-03-19T12:38:56.558Z,5.80
2019-03-19T12:41:23.554Z,5.87
2019-03-19T12:43:50.638Z,8.00
2019-03-19T12:46:17.560Z,6.27
2019-03-19T12:48:47.391Z,5.60
2019-03-19T12:51:14.046Z,5.23
2019-03-19T12:53:40.832Z,5.37
2019-03-19T12:56:07.836Z,5.23
2019-03-19T12:58:35.806Z,5.03
2019-03-19T13:01:03.227Z,6.00
2019-03-19T13:03:30.026Z,14.87
2019-03-19T13:05:56.891Z,5.53
2019-03-19T13:08:29.981Z,6.47
2019-03-19T13:10:57.855Z,5.07
2019-03-19T13:13:24.563Z,5.97
2019-03-19T13:15:51.309Z,5.13
2019-03-19T13:18:18.025Z,4.90
2019-03-19T13:20:45.599Z,5.03
2019-03-19T13:23:12.340Z,4.70
2019-03-19T13:25:39.047Z,5.37
2019-03-19T13:28:05.621Z,4.90
2019-03-19T13:30:32.671Z,5.13
2019-03-19T13:32:59.629Z,4.50
2019-03-19T13:35:27.055Z,4.90
2019-03-19T13:37:55.655Z,3.73
2019-03-19T13:40:22.581Z,4.37
2019-03-19T13:42:49.537Z,4.27
2019-03-19T13:45:20.388Z,4.13
2019-03-19T13:47:47.135Z,3.93
2019-03-19T13:50:15.955Z,3.93
2019-03-19T13:52:42.937Z,4.33
2019-03-19T13:55:17.107Z,5.23
2019-03-19T13:57:43.955Z,5.43
2019-03-19T14:00:14.934Z,5.00
2019-03-19T14:02:42.095Z,5.60
2019-03-19T14:05:10.093Z,4.07
2019-03-19T14:07:37.228Z,3.90
2019-03-19T14:10:07.831Z,5.67
2019-03-19T14:12:34.583Z,5.07
2019-03-19T14:15:05.311Z,5.27
2019-03-19T14:17:32.048Z,6.10
2019-03-19T14:19:58.769Z,5.50
2019-03-19T14:22:25.313Z,4.40
2019-03-19T14:24:52.087Z,5.00
2019-03-19T14:27:18.829Z,5.10
2019-03-19T14:29:45.571Z,5.07
2019-03-19T14:32:12.199Z,5.63
2019-03-19T14:34:38.903Z,4.80
2019-03-19T14:37:05.795Z,4.97
2019-03-19T14:39:32.827Z,5.00
2019-03-19T14:41:59.628Z,4.20
2019-03-19T14:44:26.597Z,7.47
2019-03-19T14:46:53.357Z,5.93
2019-03-19T14:49:19.997Z,4.97
2019-03-19T14:52:00.205Z,7.47
2019-03-19T14:54:26.864Z,6.23
2019-03-19T14:56:53.541Z,5.83
2019-03-19T14:59:20.357Z,9.10
2019-03-19T15:01:47.027Z,10.07
2019-03-19T15:04:13.868Z,5.67
2019-03-19T15:06:40.539Z,10.97
2019-03-19T15:09:08.389Z,5.30
2019-03-19T15:11:35.677Z,7.57
2019-03-19T15:14:02.705Z,6.50
2019-03-19T15:16:29.377Z,14.10
2019-03-19T15:18:55.999Z,6.47
2019-03-19T15:21:22.869Z,5.07
2019-03-19T15:23:49.729Z,4.87
2019-03-19T15:26:16.566Z,5.27
2019-03-19T15:28:43.467Z,6.37
2019-03-19T15:31:12.173Z,6.47
2019-03-19T15:33:38.934Z,6.90
2019-03-19T15:36:06.558Z,6.30
2019-03-19T15:38:33.091Z,6.23
2019-03-19T15:40:59.844Z,6.03
2019-03-19T15:43:26.451Z,7.63
2019-03-19T15:45:53.093Z,9.60
2019-03-19T15:48:19.719Z,7.67
2019-03-19T15:50:46.651Z,8.43
2019-03-19T15:53:13.385Z,9.77
2019-03-19T15:55:40.083Z,8.23
2019-03-19T15:58:06.830Z,8.53
2019-03-19T16:00:33.713Z,11.70
2019-03-19T16:03:00.346Z,8.00
2019-03-19T16:05:27.081Z,8.03
2019-03-19T16:07:53.839Z,8.33
2019-03-19T16:10:20.545Z,10.03
2019-03-19T16:12:47.404Z,8.77
2019-03-19T16:15:16.031Z,11.90
2019-03-19T16:17:42.847Z,8.27
2019-03-19T16:20:14.297Z,8.47
2019-03-19T16:22:40.945Z,8.20
2019-03-19T16:25:07.785Z,8.03
2019-03-19T16:27:34.395Z,7.73
2019-03-19T16:30:01.405Z,8.00
2019-03-19T16:32:28.444Z,8.67
2019-03-19T16:34:55.155Z,8.37
2019-03-19T16:37:21.815Z,8.03
2019-03-19T16:39:50.103Z,7.70
2019-03-19T16:42:16.945Z,6.60
2019-03-19T16:44:43.467Z,7.73
2019-03-19T16:47:10.222Z,8.57
2019-03-19T16:49:36.845Z,7.50
2019-03-19T16:52:04.391Z,7.40
2019-03-19T16:54:32.174Z,5.90
2019-03-19T16:56:59.074Z,6.53
2019-03-19T16:59:25.760Z,6.80
2019-03-19T17:02:01.492Z,7.23
2019-03-19T17:04:21.284Z,6.33
2019-03-19T17:06:47.952Z,6.10
2019-03-19T17:09:14.707Z,9.80
2019-03-19T17:11:41.681Z,7.83
2019-03-19T17:14:08.460Z,6.70
2019-03-19T17:16:35.128Z,8.77
2019-03-19T17:19:04.138Z,5.70
2019-03-19T17:21:31.489Z,6.63
2019-03-19T17:23:58.431Z,5.90
2019-03-19T17:26:25.236Z,6.33
2019-03-19T17:28:52.071Z,6.83
2019-03-19T17:31:18.982Z,7.33
2019-03-19T17:33:45.877Z,6.90
2019-03-19T17:36:12.482Z,8.17
2019-03-19T17:38:39.627Z,6.00
2019-03-19T17:41:06.292Z,6.17
2019-03-19T17:43:33.130Z,5.63
2019-03-19T17:46:00.500Z,6.03
2019-03-19T17:48:27.287Z,6.77
2019-03-19T17:50:55.150Z,6.60
2019-03-19T17:53:21.948Z,8.13
2019-03-19T17:55:48.754Z,6.13
2019-03-19T17:58:15.367Z,7.30
2019-03-19T18:00:49.999Z,6.77
2019-03-19T18:03:16.635Z,7.40
2019-03-19T18:05:43.428Z,8.30
2019-03-19T18:08:10.586Z,8.90
2019-03-19T18:10:39.648Z,8.47
2019-03-19T18:13:06.890Z,9.60
2019-03-19T18:15:34.112Z,6.97
2019-03-19T18:18:00.808Z,8.23
2019-03-19T18:20:27.428Z,9.27
2019-03-19T18:22:53.967Z,8.10
2019-03-19T18:25:20.726Z,9.20
2019-03-19T18:27:47.441Z,8.53
2019-03-19T18:30:21.948Z,8.43
2019-03-19T18:32:48.583Z,7.90
2019-03-19T18:35:15.502Z,7.07
2019-03-19T18:37:42.338Z,8.80
2019-03-19T18:40:13.566Z,8.57
2019-03-19T18:42:40.314Z,27.33
2019-03-19T18:45:13.856Z,8.83
2019-03-19T18:47:40.584Z,8.77
2019-03-19T18:50:13.042Z,9.40
2019-03-19T18:52:40.110Z,9.87
2019-03-19T18:55:07.483Z,11.40
2019-03-19T18:57:35.227Z,9.80
2019-03-19T19:00:03.690Z,9.33
2019-03-19T19:02:30.436Z,10.43
2019-03-19T19:04:57.086Z,10.47
2019-03-19T19:07:23.761Z,10.00
2019-03-19T19:09:50.464Z,8.90
2019-03-19T19:12:19.157Z,10.80
2019-03-19T19:14:45.946Z,11.30
2019-03-19T19:17:13.303Z,9.93
2019-03-19T19:19:40.187Z,10.33
2019-03-19T19:22:10.022Z,11.20
2019-03-19T19:24:37.771Z,11.33
2019-03-19T19:27:04.626Z,11.73
2019-03-19T19:29:31.260Z,10.33
2019-03-19T19:31:57.888Z,10.43
2019-03-19T19:34:25.587Z,11.87
2019-03-19T19:36:52.241Z,11.77
2019-03-19T19:39:18.998Z,11.70
2019-03-19T19:41:45.931Z,13.03
2019-03-19T19:44:12.824Z,12.40
2019-03-19T19:46:39.462Z,12.40
2019-03-19T19:49:06.226Z,11.77
2019-03-19T19:51:32.920Z,12.77
2019-03-19T19:53:59.982Z,13.50
2019-03-19T19:56:27.020Z,11.00
2019-03-19T19:58:55.790Z,9.40
2019-03-19T20:01:25.414Z,14.80
2019-03-19T20:03:52.371Z,16.43
2019-03-19T20:06:20.415Z,12.43
2019-03-19T20:08:47.014Z,12.43
2019-03-19T20:11:13.757Z,12.70
2019-03-19T20:13:40.621Z,10.93
2019-03-19T20:16:07.342Z,11.23
2019-03-19T20:18:34.107Z,11.07
2019-03-19T20:21:00.780Z,11.50
2019-03-19T20:23:27.698Z,12.70
2019-03-19T20:25:54.946Z,12.17
2019-03-19T20:28:23.848Z,10.57
2019-03-19T20:30:50.806Z,11.30
2019-03-19T20:33:24.795Z,12.77
2019-03-19T20:35:46.032Z,11.17
2019-03-19T20:38:13.734Z,13.00
2019-03-19T20:40:40.618Z,13.53
2019-03-19T20:43:07.280Z,12.83
2019-03-19T20:45:34.241Z,16.10
2019-03-19T20:48:01.012Z,10.90
2019-03-19T20:50:33.640Z,11.73
2019-03-19T20:53:00.590Z,11.20
2019-03-19T20:55:27.598Z,12.37
2019-03-19T20:57:54.348Z,12.87
2019-03-19T21:00:22.333Z,10.97
2019-03-19T21:02:49.381Z,13.70
2019-03-19T21:05:16.191Z,12.53
2019-03-19T21:07:45.071Z,12.17
2019-03-19T21:10:17.147Z,12.60
2019-03-19T21:12:43.985Z,13.23
2019-03-19T21:15:15.397Z,11.70
2019-03-19T21:17:42.446Z,11.43
2019-03-19T21:20:09.361Z,12.20
2019-03-19T21:22:36.391Z,12.40
2019-03-19T21:25:05.366Z,14.20
2019-03-19T21:27:32.498Z,13.53
2019-03-19T21:30:00.111Z,13.50
2019-03-19T21:32:26.960Z,12.30
2019-03-19T21:34:53.770Z,14.33
2019-03-19T21:37:20.586Z,12.67
2019-03-19T21:39:47.316Z,12.50
2019-03-19T21:42:14.013Z,14.77
2019-03-19T21:44:42.724Z,13.07
2019-03-19T21:47:09.695Z,13.37
2019-03-19T21:49:36.614Z,12.40
2019-03-19T21:52:03.419Z,12.37
2019-03-19T21:54:30.232Z,12.37
2019-03-19T21:56:56.961Z,12.43
2019-03-19T21:59:23.520Z,12.07
2019-03-19T22:01:50.334Z,13.77
2019-03-19T22:04:17.074Z,12.70
2019-03-19T22:06:43.955Z,11.60
2019-03-19T22:09:10.636Z,13.40
2019-03-19T22:11:37.331Z,12.07
2019-03-19T22:14:04.091Z,10.33
2019-03-19T22:16:30.842Z,12.30
2019-03-19T22:18:57.598Z,11.80
2019-03-19T22:21:24.244Z,13.63
2019-03-19T22:23:50.903Z,13.77
2019-03-19T22:26:17.588Z,11.00
2019-03-19T22:28:44.472Z,12.90
2019-03-19T22:31:11.100Z,18.07
2019-03-19T22:33:37.745Z,13.80
2019-03-19T22:36:04.603Z,15.23
2019-03-19T22:38:31.342Z,16.90
2019-03-19T22:40:58.003Z,13.30
2019-03-19T22:43:25.932Z,12.33
2019-03-19T22:45:53.045Z,13.07
2019-03-19T22:48:19.648Z,12.93
2019-03-19T22:50:46.610Z,12.77
2019-03-19T22:53:13.358Z,14.07
2019-03-19T22:55:40.047Z,14.93
2019-03-19T22:58:06.799Z,14.40
2019-03-19T23:00:38.578Z,14.47
2019-03-19T23:03:07.355Z,15.03
2019-03-19T23:05:35.192Z,13.90
2019-03-19T23:08:01.849Z,14.23
2019-03-19T23:10:29.624Z,13.00
2019-03-19T23:12:57.239Z,13.13
2019-03-19T23:15:23.921Z,22.53
2019-03-19T23:17:50.908Z,15.47
2019-03-19T23:20:18.030Z,14.53
2019-03-19T23:22:44.764Z,13.33
2019-03-19T23:25:12.357Z,13.43
2019-03-19T23:27:39.357Z,13.43
2019-03-19T23:30:16.167Z,14.03
2019-03-19T23:32:42.908Z,14.17
2019-03-19T23:35:09.743Z,16.73
2019-03-19T23:37:36.416Z,18.00
2019-03-19T23:40:08.054Z,14.70
2019-03-19T23:42:34.930Z,14.03
2019-03-19T23:45:01.907Z,15.23
2019-03-19T23:47:28.668Z,12.77
2019-03-19T23:49:55.386Z,14.33
2019-03-19T23:52:22.341Z,14.90
2019-03-19T23:54:49.101Z,13.27
2019-03-19T23:57:15.917Z,13.73
2019-03-19T23:59:42.817Z,12.97
